createdAt,value
2023-02-18T00:01:34.236Z,100984.44
2023-02-18T00:04:01.547Z,100978.16
2023-02-18T00:06:34.942Z,100972.78
2023-02-18T00:09:04.313Z,100977.19
2023-02-18T00:11:34.827Z,100979.88
2023-02-18T00:14:06.275Z,100980.78
2023-02-18T00:16:33.376Z,100981.72
2023-02-18T00:19:06.480Z,100975.38
2023-02-18T00:21:35.849Z,100983.44
2023-02-18T00:24:05.094Z,100974.56
2023-02-18T00:26:32.878Z,100959.59
2023-02-18T00:29:00.006Z,100955.13
2023-02-18T00:31:31.335Z,100944.59
2023-02-18T00:33:59.879Z,100939.38
2023-02-18T00:36:28.137Z,100929.56
2023-02-18T00:39:01.817Z,100932.22
2023-02-18T00:41:30.122Z,100933.13
2023-02-18T00:43:57.351Z,100948.16
2023-02-18T00:46:25.159Z,100947.28
2023-02-18T00:48:52.225Z,100940.19
2023-02-18T00:51:19.695Z,100939.34
2023-02-18T00:53:46.650Z,100947.38
2023-02-18T00:56:13.982Z,100942.03
2023-02-18T00:58:40.981Z,100929.69
2023-02-18T01:01:10.200Z,100942.94
2023-02-18T01:03:40.064Z,100921.66
2023-02-18T01:06:08.773Z,100932.31
2023-02-18T01:08:37.850Z,100934.91
2023-02-18T01:11:06.139Z,100928.69
2023-02-18T01:13:33.811Z,100929.50
2023-02-18T01:16:01.128Z,100939.22
2023-02-18T01:18:28.541Z,100948.09
2023-02-18T01:20:55.563Z,100948.06
2023-02-18T01:23:24.195Z,100954.25
2023-02-18T01:25:51.630Z,100965.75
2023-02-18T01:28:19.184Z,100960.44
2023-02-18T01:30:46.250Z,100954.19
2023-02-18T01:33:13.284Z,100960.38
2023-02-18T01:35:41.168Z,100943.56
2023-02-18T01:38:09.116Z,100956.91
2023-02-18T01:40:37.116Z,100946.28
2023-02-18T01:43:04.277Z,100944.59
2023-02-18T01:45:34.213Z,100944.56
2023-02-18T01:48:14.154Z,100940.97
2023-02-18T01:50:46.992Z,100942.75
2023-02-18T01:53:20.860Z,100941.88
2023-02-18T01:55:49.591Z,100947.19
2023-02-18T01:58:18.052Z,100944.56
2023-02-18T02:00:45.076Z,100954.34
2023-02-18T02:03:12.062Z,100946.25
2023-02-18T02:05:39.044Z,100935.56
2023-02-18T02:08:07.146Z,100931.28
2023-02-18T02:11:00.045Z,100936.59
2023-02-18T02:13:37.801Z,100927.69
2023-02-18T02:16:42.896Z,100930.25
2023-02-18T02:19:40.670Z,100935.47
2023-02-18T02:22:41.404Z,100931.88
2023-02-18T02:25:13.155Z,100935.44
2023-02-18T02:28:25.355Z,100936.34
2023-02-18T02:31:01.260Z,100924.75
2023-02-18T02:33:48.165Z,100921.22
2023-02-18T02:36:24.696Z,100916.75
2023-02-18T02:38:56.967Z,100909.78
2023-02-18T02:41:51.177Z,100893.78
2023-02-18T02:44:18.216Z,100892.88
2023-02-18T02:46:48.676Z,100877.00
2023-02-18T02:49:46.203Z,100877.91
2023-02-18T02:52:22.098Z,100865.50
2023-02-18T02:54:49.137Z,100866.38
2023-02-18T02:57:19.083Z,100867.31
2023-02-18T02:59:52.867Z,100868.22
2023-02-18T03:03:14.616Z,100866.41
2023-02-18T03:05:50.336Z,100862.81
2023-02-18T03:08:39.428Z,100863.72
2023-02-18T03:11:11.786Z,100856.75
2023-02-18T03:14:14.245Z,100851.44
2023-02-18T03:16:56.209Z,100849.63
2023-02-18T03:19:39.866Z,100847.94
2023-02-18T03:22:26.860Z,100839.06
2023-02-18T03:24:56.983Z,100839.03
2023-02-18T03:27:32.519Z,100841.69
2023-02-18T03:30:08.315Z,100823.22
2023-02-18T03:32:36.375Z,100813.56
2023-02-18T03:35:14.397Z,100800.22
2023-02-18T03:38:06.063Z,100819.69
2023-02-18T03:40:33.162Z,100816.22
2023-02-18T03:43:00.566Z,100829.47
2023-02-18T03:45:28.358Z,100821.47
2023-02-18T03:47:55.498Z,100834.81
2023-02-18T03:50:22.613Z,100816.28
2023-02-18T03:52:50.861Z,100822.34
2023-02-18T03:55:18.075Z,100823.16
2023-02-18T03:57:45.052Z,100824.94
2023-02-18T04:00:12.920Z,100815.22
2023-02-18T04:02:40.088Z,100807.34
2023-02-18T04:05:07.506Z,100804.63
2023-02-18T04:07:34.861Z,100815.16
2023-02-18T04:10:02.032Z,100815.25
2023-02-18T04:12:29.129Z,100813.50
2023-02-18T04:14:56.189Z,100809.09
2023-02-18T04:17:23.251Z,100808.22
2023-02-18T04:19:50.279Z,100808.19
2023-02-18T04:22:17.196Z,100793.19
2023-02-18T04:24:44.159Z,100792.34
2023-02-18T04:27:11.257Z,100779.00
2023-02-18T04:29:38.857Z,100782.53
2023-02-18T04:32:06.155Z,100774.56
2023-02-18T04:34:33.224Z,100772.78
2023-02-18T04:37:00.234Z,100771.09
2023-02-18T04:39:27.207Z,100766.63
2023-02-18T04:41:54.277Z,100765.75
2023-02-18T04:44:21.312Z,100758.69
2023-02-18T04:46:48.684Z,100756.13
2023-02-18T04:49:15.659Z,100749.03
2023-02-18T04:51:42.747Z,100739.25
2023-02-18T04:54:09.709Z,100744.63
2023-02-18T04:56:36.722Z,100739.28
2023-02-18T04:59:03.686Z,100750.75
2023-02-18T05:01:30.692Z,100736.63
2023-02-18T05:03:57.772Z,100734.84
2023-02-18T05:06:24.780Z,100718.06
2023-02-18T05:08:51.849Z,100726.91
2023-02-18T05:11:18.933Z,100721.56
2023-02-18T05:13:45.977Z,100718.88
2023-02-18T05:16:14.023Z,100726.00
2023-02-18T05:18:41.471Z,100728.63
2023-02-18T05:21:08.686Z,100726.06
2023-02-18T05:23:35.678Z,100722.53
2023-02-18T05:26:02.819Z,100701.25
2023-02-18T05:28:29.963Z,100708.38
2023-02-18T05:30:57.188Z,100714.50
2023-02-18T05:33:24.387Z,100712.78
2023-02-18T05:35:51.352Z,100709.19
2023-02-18T05:38:18.419Z,100697.66
2023-02-18T05:40:45.913Z,100705.69
2023-02-18T05:43:12.950Z,100697.69
2023-02-18T05:45:40.364Z,100702.94
2023-02-18T05:48:07.564Z,100696.75
2023-02-18T05:50:34.887Z,100707.22
2023-02-18T05:53:02.093Z,100703.66
2023-02-18T05:55:29.224Z,100701.25
2023-02-18T05:57:56.295Z,100674.69
2023-02-18T06:00:23.748Z,100675.47
2023-02-18T06:02:50.979Z,100670.25
2023-02-18T06:05:18.237Z,100669.44
2023-02-18T06:07:45.375Z,100657.94
2023-02-18T06:10:12.430Z,100652.59
2023-02-18T06:12:39.534Z,100667.75
2023-02-18T06:15:07.498Z,100652.72
2023-02-18T06:17:34.463Z,100653.56
2023-02-18T06:20:01.526Z,100651.81
2023-02-18T06:23:14.780Z,100655.28
2023-02-18T06:25:42.463Z,100661.66
2023-02-18T06:28:09.684Z,100629.72
2023-02-18T06:30:36.764Z,100626.19
2023-02-18T06:33:06.579Z,100641.25
2023-02-18T06:35:33.993Z,100610.31
2023-02-18T06:38:01.020Z,100613.84
2023-02-18T06:40:28.181Z,100613.91
2023-02-18T06:42:55.225Z,100602.38
2023-02-18T06:45:22.579Z,100597.09
2023-02-18T06:47:50.137Z,100585.59
2023-02-18T06:50:17.388Z,100599.78
2023-02-18T06:52:44.357Z,100590.06
2023-02-18T06:55:11.779Z,100589.22
2023-02-18T06:57:38.833Z,100601.63
2023-02-18T07:00:06.954Z,100575.94
2023-02-18T07:02:33.979Z,100581.22
2023-02-18T07:05:00.965Z,100571.56
2023-02-18T07:07:28.229Z,100564.56
2023-02-18T07:09:55.204Z,100566.34
2023-02-18T07:12:22.422Z,100567.19
2023-02-18T07:14:49.499Z,100575.16
2023-02-18T07:17:19.850Z,100580.44
2023-02-18T07:19:46.859Z,100575.16
2023-02-18T07:22:15.422Z,100592.84
2023-02-18T07:24:42.723Z,100590.19
2023-02-18T07:27:09.923Z,100599.94
2023-02-18T07:29:36.915Z,100586.72
2023-02-18T07:32:04.317Z,100573.44
2023-02-18T07:34:31.300Z,100571.66
2023-02-18T07:36:58.294Z,100575.19
2023-02-18T07:39:25.451Z,100588.47
2023-02-18T07:41:52.428Z,100576.97
2023-02-18T07:44:19.391Z,100560.22
2023-02-18T07:46:48.379Z,100552.22
2023-02-18T07:49:15.827Z,100569.91
2023-02-18T07:51:42.807Z,100555.78
2023-02-18T07:54:09.780Z,100554.03
2023-02-18T07:56:36.741Z,100541.63
2023-02-18T07:59:06.394Z,100542.50
2023-02-18T08:01:33.870Z,100546.03
2023-02-18T08:04:01.023Z,100546.06
2023-02-18T08:06:40.467Z,100535.44
2023-02-18T08:09:08.145Z,100527.50
2023-02-18T08:11:35.646Z,100518.66
2023-02-18T08:14:02.644Z,100517.78
2023-02-18T08:16:29.832Z,100507.16
2023-02-18T08:18:57.296Z,100511.56
2023-02-18T08:21:25.756Z,100500.97
2023-02-18T08:23:53.937Z,100500.06
2023-02-18T08:26:21.999Z,100491.22
2023-02-18T08:28:50.139Z,100477.97
2023-02-18T08:31:20.518Z,100485.06
2023-02-18T08:33:48.130Z,100468.25
2023-02-18T08:36:15.479Z,100452.31
2023-02-18T08:38:42.557Z,100455.84
2023-02-18T08:41:10.149Z,100453.22
2023-02-18T08:43:37.681Z,100447.00
2023-02-18T08:46:05.404Z,100444.34
2023-02-18T08:48:33.056Z,100453.19
2023-02-18T08:51:00.122Z,100448.78
2023-02-18T08:53:27.131Z,100437.28
2023-02-18T08:55:54.116Z,100440.81
2023-02-18T08:58:21.124Z,100434.63
2023-02-18T09:00:48.119Z,100432.84
2023-02-18T09:03:16.179Z,100427.56
2023-02-18T09:05:43.369Z,100428.44
2023-02-18T09:08:11.585Z,100435.50
2023-02-18T09:10:39.543Z,100427.53
2023-02-18T09:13:06.605Z,100426.66
2023-02-18T09:15:33.600Z,100425.78
2023-02-18T09:18:03.730Z,100418.69
2023-02-18T09:20:30.791Z,100423.13
2023-02-18T09:22:57.901Z,100432.88
2023-02-18T09:25:25.464Z,100423.13
2023-02-18T09:27:52.511Z,100428.44
2023-02-18T09:30:19.770Z,100427.53
2023-02-18T09:32:46.674Z,100426.66
2023-02-18T09:35:13.658Z,100431.97
2023-02-18T09:37:41.289Z,100426.66
2023-02-18T09:40:09.057Z,100424.91
2023-02-18T09:42:36.139Z,100421.34
2023-02-18T09:45:07.507Z,100432.84
2023-02-18T09:47:46.275Z,100418.72
2023-02-18T09:50:27.993Z,100428.44
2023-02-18T09:52:56.806Z,100396.56
2023-02-18T09:55:30.642Z,100382.44
2023-02-18T09:58:06.230Z,100398.34
2023-02-18T10:00:41.499Z,100394.81
2023-02-18T10:03:21.415Z,100396.59
2023-02-18T10:06:04.669Z,100400.13
2023-02-18T10:08:44.108Z,100387.75
2023-02-18T10:11:23.830Z,100380.66
2023-02-18T10:13:53.456Z,100382.44
2023-02-18T10:16:22.364Z,100377.13
2023-02-18T10:18:54.907Z,100362.97
2023-02-18T10:21:26.771Z,100356.78
2023-02-18T10:24:29.215Z,100378.03
2023-02-18T10:26:57.258Z,100372.72
2023-02-18T10:29:25.563Z,100358.56
2023-02-18T10:31:59.827Z,100342.63
2023-02-18T10:35:00.566Z,100362.97
2023-02-18T10:37:49.372Z,100378.03
2023-02-18T10:40:28.643Z,100381.56
2023-02-18T10:43:07.684Z,100398.38
2023-02-18T10:45:59.822Z,100383.34
2023-02-18T10:48:47.970Z,100394.81
2023-02-18T10:51:24.806Z,100377.13
2023-02-18T10:53:53.662Z,100377.16
2023-02-18T10:56:40.673Z,100379.78
2023-02-18T10:59:33.754Z,100387.75
2023-02-18T11:02:13.760Z,100386.00
2023-02-18T11:04:44.666Z,100370.97
2023-02-18T11:07:23.752Z,100362.13
2023-02-18T11:09:56.463Z,100371.84
2023-02-18T11:12:29.331Z,100355.94
2023-02-18T11:15:10.842Z,100340.91
2023-02-18T11:18:01.026Z,100339.13
2023-02-18T11:20:49.469Z,100317.91
2023-02-18T11:23:29.144Z,100317.00
2023-02-18T11:26:05.864Z,100307.28
2023-02-18T11:29:21.989Z,100271.88
2023-02-18T11:31:54.632Z,100259.50
2023-02-18T11:34:28.656Z,100276.28
2023-02-18T11:37:19.470Z,100238.28
2023-02-18T11:39:51.344Z,100221.47
2023-02-18T11:42:22.480Z,100217.03
2023-02-18T11:45:00.974Z,100195.78
2023-02-18T11:47:35.739Z,100194.91
2023-02-18T11:50:08.929Z,100197.56
2023-02-18T11:52:42.931Z,100167.47
2023-02-18T11:55:25.097Z,100157.72
2023-02-18T11:58:03.123Z,100146.19
2023-02-18T12:00:40.660Z,100101.91
2023-02-18T12:03:48.549Z,100092.78
2023-02-18T12:06:28.744Z,100094.59
2023-02-18T12:09:06.179Z,100029.19
2023-02-18T12:12:00.217Z,100026.53
2023-02-18T12:14:27.533Z,100013.28
2023-02-18T12:17:23.291Z,100017.69
2023-02-18T12:20:29.759Z,99997.31
2023-02-18T12:23:31.770Z,99985.81
2023-02-18T12:26:25.167Z,99930.16
2023-02-18T12:29:08.192Z,99942.56
2023-02-18T12:32:18.424Z,99964.34
2023-02-18T12:35:31.221Z,99942.69
2023-02-18T12:38:30.393Z,99889.59
2023-02-18T12:41:31.443Z,99918.28
2023-02-18T12:44:18.696Z,99865.03
2023-02-18T12:47:31.298Z,99876.53
2023-02-18T12:50:25.357Z,99823.84
2023-02-18T12:53:29.768Z,99810.66
2023-02-18T12:56:25.551Z,99796.44
2023-02-18T12:59:40.805Z,99786.63
2023-02-18T13:02:45.207Z,99773.28
2023-02-18T13:05:32.086Z,99764.34
2023-02-18T13:08:31.564Z,99775.72
2023-02-18T13:11:19.495Z,99725.31
2023-02-18T13:14:11.891Z,99742.84
2023-02-18T13:16:44.688Z,99763.59
2023-02-18T13:19:24.876Z,99752.94
2023-02-18T13:21:56.981Z,99733.06
2023-02-18T13:24:49.434Z,99713.94
2023-02-18T13:27:37.016Z,99662.28
2023-02-18T13:30:50.532Z,99607.72
2023-02-18T13:33:42.995Z,99587.50
2023-02-18T13:36:55.371Z,99567.56
2023-02-18T13:39:25.200Z,99547.63
2023-02-18T13:42:11.306Z,99542.22
2023-02-18T13:45:23.683Z,99530.03
2023-02-18T13:47:51.548Z,99554.28
2023-02-18T13:50:27.653Z,99501.16
2023-02-18T13:53:20.933Z,99547.72
2023-02-18T13:56:29.610Z,99558.78
2023-02-18T13:59:08.710Z,99514.03
2023-02-18T14:01:52.230Z,99534.44
2023-02-18T14:04:44.404Z,99510.78
2023-02-18T14:07:23.774Z,99499.91
2023-02-18T14:09:53.009Z,99485.66
2023-02-18T14:12:42.776Z,99533.00
2023-02-18T14:15:18.586Z,99516.31
2023-02-18T14:18:13.567Z,99442.81
2023-02-18T14:20:40.509Z,99475.34
2023-02-18T14:23:19.617Z,99498.16
2023-02-18T14:26:12.485Z,99433.00
2023-02-18T14:28:51.189Z,99437.41
2023-02-18T14:31:40.856Z,99410.06
2023-02-18T14:34:17.792Z,99402.25
2023-02-18T14:37:26.364Z,99394.47
2023-02-18T14:40:26.754Z,99417.75
2023-02-18T14:43:26.081Z,99418.06
2023-02-18T14:46:01.792Z,99411.72
2023-02-18T14:48:43.468Z,99410.41
2023-02-18T14:51:16.110Z,99423.41
2023-02-18T14:53:45.322Z,99439.28
2023-02-18T14:56:16.893Z,99387.78
2023-02-18T14:58:55.720Z,99422.34
2023-02-18T15:01:32.729Z,99448.06
2023-02-18T15:04:02.657Z,99541.00
2023-02-18T15:06:36.683Z,99482.16
2023-02-18T15:09:15.181Z,99556.59
2023-02-18T15:11:54.452Z,99503.78
2023-02-18T15:14:32.060Z,99533.78
2023-02-18T15:17:00.369Z,99503.09
2023-02-18T15:19:44.267Z,99501.91
2023-02-18T15:22:34.377Z,99513.66
2023-02-18T15:25:02.804Z,99509.25
2023-02-18T15:27:33.435Z,99443.69
2023-02-18T15:30:27.956Z,99460.47
2023-02-18T15:32:58.615Z,99457.09
2023-02-18T15:35:33.497Z,99483.97
2023-02-18T15:38:01.505Z,99482.53
2023-02-18T15:40:35.503Z,99456.34
2023-02-18T15:43:06.323Z,99501.41
2023-02-18T15:45:41.982Z,99495.34
2023-02-18T15:48:43.165Z,99516.56
2023-02-18T15:51:19.650Z,99513.31
2023-02-18T15:53:52.473Z,99527.59
2023-02-18T15:56:29.924Z,99533.75
2023-02-18T15:59:27.448Z,99565.56
2023-02-18T16:02:01.573Z,99561.31
2023-02-18T16:04:37.297Z,99567.59
2023-02-18T16:07:24.177Z,99570.25
2023-02-18T16:10:17.182Z,99582.63
2023-02-18T16:12:50.620Z,99596.06
2023-02-18T16:15:31.341Z,99609.31
2023-02-18T16:18:01.370Z,99628.81
2023-02-18T16:20:36.219Z,99643.88
2023-02-18T16:23:14.872Z,99635.06
2023-02-18T16:25:46.143Z,99644.81
2023-02-18T16:28:33.043Z,99659.88
2023-02-18T16:31:00.110Z,99664.34
2023-02-18T16:33:27.320Z,99675.88
2023-02-18T16:35:57.718Z,99684.69
2023-02-18T16:38:25.606Z,99708.56
2023-02-18T16:40:55.124Z,99720.91
2023-02-18T16:43:26.935Z,99733.31
2023-02-18T16:45:58.385Z,99736.84
2023-02-18T16:48:40.300Z,99758.94
2023-02-18T16:51:24.546Z,99774.84
2023-02-18T16:53:52.299Z,99796.03
2023-02-18T16:56:32.351Z,99806.66
2023-02-18T16:59:00.010Z,99809.31
2023-02-18T17:01:41.379Z,99826.09
2023-02-18T17:04:16.303Z,99817.25
2023-02-18T17:06:46.466Z,99824.31
2023-02-18T17:09:23.402Z,99821.69
2023-02-18T17:11:52.913Z,99828.75
2023-02-18T17:14:21.767Z,99830.53
2023-02-18T17:16:52.108Z,99847.31
2023-02-18T17:19:19.425Z,99848.19
2023-02-18T17:21:48.724Z,99861.44
2023-02-18T17:24:18.633Z,99869.38
2023-02-18T17:26:45.964Z,99871.13
2023-02-18T17:29:14.019Z,99877.34
2023-02-18T17:31:47.406Z,99900.28
2023-02-18T17:34:31.045Z,99905.56
2023-02-18T17:36:58.221Z,99918.81
2023-02-18T17:39:25.462Z,99921.44
2023-02-18T17:41:56.262Z,99930.28
2023-02-18T17:44:26.279Z,99934.69
2023-02-18T17:46:55.086Z,99932.94
2023-02-18T17:49:22.702Z,99938.22
2023-02-18T17:51:52.290Z,99926.75
2023-02-18T17:54:22.783Z,99933.81
2023-02-18T17:56:50.261Z,99926.75
2023-02-18T17:59:17.970Z,99938.22
2023-02-18T18:01:45.109Z,99930.28
2023-02-18T18:04:19.698Z,99931.16
2023-02-18T18:06:49.692Z,99928.53
2023-02-18T18:09:17.013Z,99931.16
2023-02-18T18:11:44.691Z,99919.69
2023-02-18T18:14:15.147Z,99917.94
2023-02-18T18:16:42.618Z,99913.53
2023-02-18T18:19:10.315Z,99914.41
2023-02-18T18:21:38.081Z,99924.13
2023-02-18T18:24:07.327Z,99923.25
2023-02-18T18:26:37.897Z,99934.72
2023-02-18T18:29:08.455Z,99937.34
2023-02-18T18:31:37.577Z,99947.94
2023-02-18T18:34:04.732Z,99959.41
2023-02-18T18:36:31.809Z,99961.16
2023-02-18T18:38:59.247Z,99953.22
2023-02-18T18:41:26.427Z,99958.53
2023-02-18T18:43:53.571Z,99970.00
2023-02-18T18:46:21.269Z,99969.13
2023-02-18T18:48:49.089Z,99984.97
2023-02-18T18:51:27.913Z,99974.41
2023-02-18T18:53:55.867Z,99960.28
2023-02-18T18:56:23.382Z,99971.75
2023-02-18T18:58:50.877Z,99975.28
2023-02-18T19:01:27.803Z,99974.41
2023-02-18T19:03:54.985Z,99965.59
2023-02-18T19:06:23.294Z,99965.59
2023-02-18T19:08:51.201Z,99977.94
2023-02-18T19:11:18.591Z,99974.41
2023-02-18T19:13:46.422Z,99977.94
2023-02-18T19:16:35.227Z,99970.88
2023-02-18T19:19:02.987Z,99969.13
2023-02-18T19:21:34.362Z,99966.47
2023-02-18T19:24:02.188Z,99955.00
2023-02-18T19:26:29.265Z,99954.13
2023-02-18T19:28:57.049Z,99947.06
2023-02-18T19:31:24.595Z,99932.97
2023-02-18T19:33:52.255Z,99947.06
2023-02-18T19:36:19.373Z,99943.53
2023-02-18T19:38:46.978Z,99932.06
2023-02-18T19:41:17.109Z,99942.66
2023-02-18T19:43:46.651Z,99927.66
2023-02-18T19:46:18.662Z,99924.13
2023-02-18T19:48:52.562Z,99916.22
2023-02-18T19:51:21.492Z,99910.91
2023-02-18T19:53:48.758Z,99913.56
2023-02-18T19:56:15.935Z,99910.03
2023-02-18T19:58:43.213Z,99901.22
2023-02-18T20:01:18.366Z,99900.34
2023-02-18T20:03:47.450Z,99897.69
2023-02-18T20:06:20.181Z,99890.66
2023-02-18T20:08:47.785Z,99895.06
2023-02-18T20:11:15.011Z,99903.88
2023-02-18T20:13:42.278Z,99899.47
2023-02-18T20:16:10.871Z,99902.09
2023-02-18T20:18:37.967Z,99905.63
2023-02-18T20:21:05.579Z,99898.59
2023-02-18T20:23:32.584Z,99903.88
2023-02-18T20:26:02.708Z,99918.84
2023-02-18T20:28:29.685Z,99900.34
2023-02-18T20:31:12.100Z,99905.63
2023-02-18T20:33:39.828Z,99907.41
2023-02-18T20:36:08.627Z,99901.22
2023-02-18T20:38:39.372Z,99915.31
2023-02-18T20:41:14.536Z,99925.00
2023-02-18T20:43:42.147Z,99940.00
2023-02-18T20:46:13.881Z,99949.69
2023-02-18T20:48:40.960Z,99951.44
2023-02-18T20:51:18.702Z,99954.91
2023-02-18T20:53:48.216Z,99958.44
2023-02-18T20:56:15.645Z,99965.47
2023-02-18T20:58:42.879Z,99971.66
2023-02-18T21:01:14.380Z,99976.06
2023-02-18T21:03:42.374Z,99982.22
2023-02-18T21:06:14.001Z,99969.91
2023-02-18T21:08:42.316Z,99974.28
2023-02-18T21:11:14.366Z,99991.91
2023-02-18T21:13:42.487Z,99975.19
2023-02-18T21:16:10.375Z,99985.75
2023-02-18T21:18:38.469Z,99978.69
2023-02-18T21:21:08.606Z,99975.16
2023-02-18T21:23:36.943Z,99978.69
2023-02-18T21:26:08.116Z,99964.59
2023-02-18T21:28:35.873Z,99985.72
2023-02-18T21:31:03.899Z,99985.72
2023-02-18T21:33:33.861Z,99990.13
2023-02-18T21:36:03.354Z,99983.06
2023-02-18T21:38:30.431Z,99993.66
2023-02-18T21:40:57.549Z,99996.28
2023-02-18T21:43:24.714Z,99991.00
2023-02-18T21:45:51.803Z,99988.34
2023-02-18T21:48:37.451Z,99981.31
2023-02-18T21:51:04.700Z,99978.66
2023-02-18T21:53:32.072Z,99985.72
2023-02-18T21:56:12.628Z,99984.84
2023-02-18T21:58:41.852Z,99979.53
2023-02-18T22:01:09.226Z,99990.06
2023-02-18T22:03:36.650Z,99993.56
2023-02-18T22:06:03.883Z,99992.69
2023-02-18T22:08:31.177Z,99984.78
2023-02-18T22:10:58.423Z,99990.94
2023-02-18T22:13:25.669Z,99989.19
2023-02-18T22:15:57.377Z,99981.25
2023-02-18T22:18:24.595Z,99983.00
2023-02-18T22:20:51.620Z,99978.59
2023-02-18T22:23:18.737Z,99981.31
2023-02-18T22:25:47.968Z,99978.63
2023-02-18T22:28:15.497Z,99971.56
2023-02-18T22:30:42.517Z,99976.84
2023-02-18T22:33:09.551Z,99970.72
2023-02-18T22:35:36.624Z,99964.53
2023-02-18T22:38:03.839Z,99967.16
2023-02-18T22:40:30.915Z,99963.63
2023-02-18T22:42:57.952Z,99962.75
2023-02-18T22:45:24.951Z,99979.47
2023-02-18T22:47:51.967Z,99973.31
2023-02-18T22:50:19.163Z,99972.41
2023-02-18T22:52:46.254Z,99982.97
2023-02-18T22:55:13.245Z,99982.09
2023-02-18T22:57:40.218Z,99982.97
2023-02-18T23:00:10.825Z,99978.59
2023-02-18T23:02:37.829Z,99973.34
2023-02-18T23:05:04.940Z,99964.53
2023-02-18T23:07:31.914Z,99954.81
2023-02-18T23:09:59.016Z,99952.16
2023-02-18T23:12:26.003Z,99957.44
2023-02-18T23:14:53.089Z,99956.56
2023-02-18T23:17:20.181Z,99965.38
2023-02-18T23:19:52.829Z,99962.75
2023-02-18T23:22:30.555Z,99968.91
2023-02-18T23:24:57.744Z,99958.31
2023-02-18T23:27:26.039Z,99963.59
2023-02-18T23:29:53.883Z,99969.75
2023-02-18T23:32:20.996Z,99969.75
2023-02-18T23:34:51.117Z,99981.22
2023-02-18T23:37:18.467Z,99974.16
2023-02-18T23:39:47.401Z,99984.72
2023-02-18T23:42:15.359Z,99985.59
2023-02-18T23:44:42.386Z,99986.47
2023-02-18T23:47:09.398Z,99980.31
2023-02-18T23:49:36.410Z,99979.44
2023-02-18T23:52:03.805Z,99993.50
2023-02-18T23:54:30.818Z,99990.00
2023-02-18T23:56:58.386Z,99994.38
2023-02-18T23:59:25.453Z,100011.97
